sensor_id;sensor_type;location;lat;lon;timestamp;pressure;altitude;pressure_sealevel;temperature;humidity
40155;BME280;25875;48.202;16.334;2023-04-01T00:01:27;97668.72;;;10.47;54.31
40155;BME280;25875;48.202;16.334;2023-04-01T00:03:53;97672.22;;;10.47;54.51
40155;BME280;25875;48.202;16.334;2023-04-01T00:06:22;97704.97;;;10.46;54.55
40155;BME280;25875;48.202;16.334;2023-04-01T00:08:49;97670.91;;;10.42;54.68
40155;BME280;25875;48.202;16.334;2023-04-01T00:11:17;97682.59;;;10.39;54.59
40155;BME280;25875;48.202;16.334;2023-04-01T00:13:44;97700.28;;;10.39;54.72
40155;BME280;25875;48.202;16.334;2023-04-01T00:16:12;97716.31;;;10.37;54.84
40155;BME280;25875;48.202;16.334;2023-04-01T00:18:39;97698.72;;;10.36;54.76
40155;BME280;25875;48.202;16.334;2023-04-01T00:21:06;97586.97;;;9.56;54.50
40155;BME280;25875;48.202;16.334;2023-04-01T00:23:33;97712.22;;;10.33;54.84
40155;BME280;25875;48.202;16.334;2023-04-01T00:26:00;97715.94;;;10.31;54.77
40155;BME280;25875;48.202;16.334;2023-04-01T00:28:29;97714.38;;;10.28;54.94
40155;BME280;25875;48.202;16.334;2023-04-01T00:30:56;97702.97;;;10.27;54.84
40155;BME280;25875;48.202;16.334;2023-04-01T00:33:23;97701.03;;;10.30;54.77
40155;BME280;25875;48.202;16.334;2023-04-01T00:35:50;97705.47;;;10.29;54.74
40155;BME280;25875;48.202;16.334;2023-04-01T00:38:17;97691.41;;;10.28;54.81
40155;BME280;25875;48.202;16.334;2023-04-01T00:40:45;97695.84;;;10.28;54.63
40155;BME280;25875;48.202;16.334;2023-04-01T00:43:14;97652.69;;;10.05;54.98
40155;BME280;25875;48.202;16.334;2023-04-01T00:45:46;97698.75;;;10.25;54.72
40155;BME280;25875;48.202;16.334;2023-04-01T00:48:15;97684.66;;;10.24;54.93
40155;BME280;25875;48.202;16.334;2023-04-01T00:50:44;97688.28;;;10.23;54.68
40155;BME280;25875;48.202;16.334;2023-04-01T00:53:12;97687.44;;;10.23;54.84
40155;BME280;25875;48.202;16.334;2023-04-01T00:55:43;97690.09;;;10.23;54.80
40155;BME280;25875;48.202;16.334;2023-04-01T00:58:15;97691.91;;;10.22;54.90
40155;BME280;25875;48.202;16.334;2023-04-01T01:00:45;97653.66;;;10.04;54.61
40155;BME280;25875;48.202;16.334;2023-04-01T01:03:14;97691.28;;;10.19;54.82
40155;BME280;25875;48.202;16.334;2023-04-01T01:06:02;97685.88;;;10.20;55.17
40155;BME280;25875;48.202;16.334;2023-04-01T01:08:45;97683.34;;;10.19;54.97
40155;BME280;25875;48.202;16.334;2023-04-01T01:11:22;97676.25;;;10.19;54.84
40155;BME280;25875;48.202;16.334;2023-04-01T01:13:58;97672.66;;;10.20;54.77
40155;BME280;25875;48.202;16.334;2023-04-01T01:16:36;97686.72;;;10.21;54.99
40155;BME280;25875;48.202;16.334;2023-04-01T01:19:11;97686.59;;;10.22;54.84
40155;BME280;25875;48.202;16.334;2023-04-01T01:22:00;97665.66;;;10.19;54.87
40155;BME280;25875;48.202;16.334;2023-04-01T01:24:45;97659.78;;;10.16;55.11
40155;BME280;25875;48.202;16.334;2023-04-01T01:27:20;97616.28;;;9.75;54.74
40155;BME280;25875;48.202;16.334;2023-04-01T01:30:09;97646.41;;;10.17;54.96
40155;BME280;25875;48.202;16.334;2023-04-01T01:33:05;97645.56;;;10.17;54.96
40155;BME280;25875;48.202;16.334;2023-04-01T01:35:38;97645.81;;;10.14;54.76
40155;BME280;25875;48.202;16.334;2023-04-01T01:38:08;97519.19;;;9.44;54.81
40155;BME280;25875;48.202;16.334;2023-04-01T01:40:36;97644.97;;;10.13;54.63
40155;BME280;25875;48.202;16.334;2023-04-01T01:43:09;97654.72;;;10.13;55.02
40155;BME280;25875;48.202;16.334;2023-04-01T01:45:40;97656.66;;;10.11;55.04
40155;BME280;25875;48.202;16.334;2023-04-01T01:48:10;97658.34;;;10.12;54.80
40155;BME280;25875;48.202;16.334;2023-04-01T01:50:41;97656.66;;;10.11;54.88
40155;BME280;25875;48.202;16.334;2023-04-01T01:53:10;97658.47;;;10.10;54.99
40155;BME280;25875;48.202;16.334;2023-04-01T01:55:39;97660.25;;;10.10;55.17
40155;BME280;25875;48.202;16.334;2023-04-01T01:58:11;97660.13;;;10.11;55.57
40155;BME280;25875;48.202;16.334;2023-04-01T02:00:39;97667.38;;;10.09;55.24
40155;BME280;25875;48.202;16.334;2023-04-01T02:03:07;97669.78;;;10.12;55.20
40155;BME280;25875;48.202;16.334;2023-04-01T02:05:35;97668.81;;;10.13;55.11
40155;BME280;25875;48.202;16.334;2023-04-01T02:08:07;97684.94;;;10.10;55.61
40155;BME280;25875;48.202;16.334;2023-04-01T02:10:39;97664.72;;;10.09;55.41
40155;BME280;25875;48.202;16.334;2023-04-01T02:13:12;97648.25;;;9.83;55.87
40155;BME280;25875;48.202;16.334;2023-04-01T02:15:45;97668.69;;;10.04;55.96
40155;BME280;25875;48.202;16.334;2023-04-01T02:18:14;97659.91;;;10.03;55.70
40155;BME280;25875;48.202;16.334;2023-04-01T02:20:43;97666.03;;;10.04;55.88
40155;BME280;25875;48.202;16.334;2023-04-01T02:23:12;97660.66;;;9.94;55.74
40155;BME280;25875;48.202;16.334;2023-04-01T02:25:41;97645.25;;;9.88;55.67
40155;BME280;25875;48.202;16.334;2023-04-01T02:28:10;97640.31;;;9.83;56.17
40155;BME280;25875;48.202;16.334;2023-04-01T02:30:42;97673.63;;;9.97;55.77
40155;BME280;25875;48.202;16.334;2023-04-01T02:33:10;97661.63;;;9.82;55.90
40155;BME280;25875;48.202;16.334;2023-04-01T02:35:38;97681.69;;;9.95;56.05
40155;BME280;25875;48.202;16.334;2023-04-01T02:38:05;97567.78;;;9.19;56.05
40155;BME280;25875;48.202;16.334;2023-04-01T02:40:43;97683.03;;;9.90;56.57
40155;BME280;25875;48.202;16.334;2023-04-01T02:43:10;97672.44;;;9.90;56.09
40155;BME280;25875;48.202;16.334;2023-04-01T02:45:37;97681.34;;;9.89;56.17
40155;BME280;25875;48.202;16.334;2023-04-01T02:48:04;97675.31;;;9.87;56.34
40155;BME280;25875;48.202;16.334;2023-04-01T02:50:31;97674.47;;;9.86;56.06
40155;BME280;25875;48.202;16.334;2023-04-01T02:52:58;97682.53;;;9.85;55.98
40155;BME280;25875;48.202;16.334;2023-04-01T02:55:25;97686.16;;;9.84;56.18
40155;BME280;25875;48.202;16.334;2023-04-01T02:57:53;97688.06;;;9.82;56.22
40155;BME280;25875;48.202;16.334;2023-04-01T03:00:20;97691.56;;;9.82;56.36
40155;BME280;25875;48.202;16.334;2023-04-01T03:02:47;97678.81;;;9.76;56.85
40155;BME280;25875;48.202;16.334;2023-04-01T03:05:13;97695.75;;;9.74;56.79
40155;BME280;25875;48.202;16.334;2023-04-01T03:07:40;97693.25;;;9.72;57.06
40155;BME280;25875;48.202;16.334;2023-04-01T03:10:08;97685.03;;;9.53;57.04
40155;BME280;25875;48.202;16.334;2023-04-01T03:12:35;97693.47;;;9.69;56.96
40155;BME280;25875;48.202;16.334;2023-04-01T03:15:04;97692.63;;;9.69;57.23
40155;BME280;25875;48.202;16.334;2023-04-01T03:17:32;97682.06;;;9.69;56.96
40155;BME280;25875;48.202;16.334;2023-04-01T03:19:59;97680.97;;;9.71;57.07
40155;BME280;25875;48.202;16.334;2023-04-01T03:22:25;97657.88;;;9.51;56.89
40155;BME280;25875;48.202;16.334;2023-04-01T03:24:52;97679.53;;;9.67;56.95
40155;BME280;25875;48.202;16.334;2023-04-01T03:27:19;97688.44;;;9.66;56.87
40155;BME280;25875;48.202;16.334;2023-04-01T03:29:46;97697.44;;;9.63;57.11
40155;BME280;25875;48.202;16.334;2023-04-01T03:32:14;97703.09;;;9.59;57.29
40155;BME280;25875;48.202;16.334;2023-04-01T03:34:41;97678.56;;;9.57;57.11
40155;BME280;25875;48.202;16.334;2023-04-01T03:37:08;97671.81;;;9.53;57.43
40155;BME280;25875;48.202;16.334;2023-04-01T03:39:35;97691.19;;;9.53;57.40
40155;BME280;25875;48.202;16.334;2023-04-01T03:42:02;97686.72;;;9.54;57.45
40155;BME280;25875;48.202;16.334;2023-04-01T03:44:30;97652.19;;;9.33;57.42
40155;BME280;25875;48.202;16.334;2023-04-01T03:46:57;97698.28;;;9.53;57.37
40155;BME280;25875;48.202;16.334;2023-04-01T03:49:25;97613.06;;;9.03;57.67
40155;BME280;25875;48.202;16.334;2023-04-01T03:51:52;97661.06;;;9.32;57.38
40155;BME280;25875;48.202;16.334;2023-04-01T03:54:19;97684.44;;;9.49;57.42
40155;BME280;25875;48.202;16.334;2023-04-01T03:56:46;97684.31;;;9.51;57.35
40155;BME280;25875;48.202;16.334;2023-04-01T03:59:13;97675.56;;;9.50;57.45
40155;BME280;25875;48.202;16.334;2023-04-01T04:01:40;97673.75;;;9.51;57.53
40155;BME280;25875;48.202;16.334;2023-04-01T04:04:07;97675.66;;;9.49;57.41
40155;BME280;25875;48.202;16.334;2023-04-01T04:06:35;97671.22;;;9.49;57.42
40155;BME280;25875;48.202;16.334;2023-04-01T04:09:02;97666.78;;;9.50;57.25
40155;BME280;25875;48.202;16.334;2023-04-01T04:11:30;97676.50;;;9.49;57.20
40155;BME280;25875;48.202;16.334;2023-04-01T04:13:57;97671.34;;;9.48;57.18
40155;BME280;25875;48.202;16.334;2023-04-01T04:16:24;97675.78;;;9.47;57.29
40155;BME280;25875;48.202;16.334;2023-04-01T04:18:51;97670.63;;;9.46;57.32
40155;BME280;25875;48.202;16.334;2023-04-01T04:21:18;97671.56;;;9.45;57.16
40155;BME280;25875;48.202;16.334;2023-04-01T04:23:46;97701.63;;;9.44;57.27
40155;BME280;25875;48.202;16.334;2023-04-01T04:26:14;97664.06;;;9.27;57.06
40155;BME280;25875;48.202;16.334;2023-04-01T04:28:41;97683.97;;;9.44;56.92
40155;BME280;25875;48.202;16.334;2023-04-01T04:31:08;97686.59;;;9.44;56.79
40155;BME280;25875;48.202;16.334;2023-04-01T04:33:35;97686.47;;;9.46;56.87
40155;BME280;25875;48.202;16.334;2023-04-01T04:36:03;97687.56;;;9.43;57.11
40155;BME280;25875;48.202;16.334;2023-04-01T04:38:30;97681.31;;;9.44;56.90
40155;BME280;25875;48.202;16.334;2023-04-01T04:40:58;97687.44;;;9.45;57.06
40155;BME280;25875;48.202;16.334;2023-04-01T04:43:25;97659.75;;;9.26;56.73
40155;BME280;25875;48.202;16.334;2023-04-01T04:45:52;97699.81;;;9.44;56.82
40155;BME280;25875;48.202;16.334;2023-04-01T04:48:19;97697.19;;;9.44;56.97
40155;BME280;25875;48.202;16.334;2023-04-01T04:50:47;97686.72;;;9.43;56.85
40155;BME280;25875;48.202;16.334;2023-04-01T04:53:16;97643.28;;;9.23;56.96
40155;BME280;25875;48.202;16.334;2023-04-01T04:55:43;97691.16;;;9.42;56.94
40155;BME280;25875;48.202;16.334;2023-04-01T04:58:12;97686.00;;;9.41;56.95
40155;BME280;25875;48.202;16.334;2023-04-01T05:00:39;97691.28;;;9.41;56.87
40155;BME280;25875;48.202;16.334;2023-04-01T05:03:06;97698.38;;;9.40;56.72
40155;BME280;25875;48.202;16.334;2023-04-01T05:05:33;97623.72;;;8.90;56.85
40155;BME280;25875;48.202;16.334;2023-04-01T05:08:00;97547.31;;;8.30;56.89
40155;BME280;25875;48.202;16.334;2023-04-01T05:10:27;97688.84;;;9.38;57.13
40155;BME280;25875;48.202;16.334;2023-04-01T05:12:54;97666.41;;;9.19;56.99
40155;BME280;25875;48.202;16.334;2023-04-01T05:15:23;97693.28;;;9.37;57.09
40155;BME280;25875;48.202;16.334;2023-04-01T05:17:49;97687.78;;;9.40;57.06
40155;BME280;25875;48.202;16.334;2023-04-01T05:20:17;97685.25;;;9.39;57.02
40155;BME280;25875;48.202;16.334;2023-04-01T05:22:43;97691.38;;;9.39;56.96
40155;BME280;25875;48.202;16.334;2023-04-01T05:25:10;97689.47;;;9.41;57.07
40155;BME280;25875;48.202;16.334;2023-04-01T05:27:37;97686.59;;;9.44;56.87
40155;BME280;25875;48.202;16.334;2023-04-01T05:30:05;97687.44;;;9.45;57.37
40155;BME280;25875;48.202;16.334;2023-04-01T05:32:33;97685.75;;;9.44;57.12
40155;BME280;25875;48.202;16.334;2023-04-01T05:35:00;97677.16;;;9.29;57.12
40155;BME280;25875;48.202;16.334;2023-04-01T05:37:27;97694.28;;;9.47;57.21
40155;BME280;25875;48.202;16.334;2023-04-01T05:39:53;97704.03;;;9.47;57.23
40155;BME280;25875;48.202;16.334;2023-04-01T05:42:20;97694.28;;;9.47;57.39
40155;BME280;25875;48.202;16.334;2023-04-01T05:44:47;97710.03;;;9.49;57.36
40155;BME280;25875;48.202;16.334;2023-04-01T05:47:14;97696.72;;;9.50;57.42
40155;BME280;25875;48.202;16.334;2023-04-01T05:49:42;97709.09;;;9.50;57.47
40155;BME280;25875;48.202;16.334;2023-04-01T05:52:09;97657.56;;;9.20;57.47
40155;BME280;25875;48.202;16.334;2023-04-01T05:54:36;97716.53;;;9.56;57.44
40155;BME280;25875;48.202;16.334;2023-04-01T05:57:02;97717.88;;;9.61;57.48
40155;BME280;25875;48.202;16.334;2023-04-01T05:59:29;97742.16;;;9.67;57.31
40155;BME280;25875;48.202;16.334;2023-04-01T06:01:58;97746.63;;;9.77;57.12
40155;BME280;25875;48.202;16.334;2023-04-01T06:04:24;97744.97;;;9.87;56.91
40155;BME280;25875;48.202;16.334;2023-04-01T06:06:53;97741.25;;;10.01;56.62
40155;BME280;25875;48.202;16.334;2023-04-01T06:09:25;97743.53;;;10.17;56.63
40155;BME280;25875;48.202;16.334;2023-04-01T06:12:24;97698.66;;;10.04;56.77
40155;BME280;25875;48.202;16.334;2023-04-01T06:15:03;97742.16;;;10.56;55.91
40155;BME280;25875;48.202;16.334;2023-04-01T06:17:47;97740.53;;;10.87;55.35
40155;BME280;25875;48.202;16.334;2023-04-01T06:20:23;97731.59;;;11.20;54.40
40155;BME280;25875;48.202;16.334;2023-04-01T06:23:04;97734.41;;;11.39;54.11
40155;BME280;25875;48.202;16.334;2023-04-01T06:25:45;97699.09;;;11.39;53.48
40155;BME280;25875;48.202;16.334;2023-04-01T06:31:24;97739.44;;;11.84;53.00
40155;BME280;25875;48.202;16.334;2023-04-01T06:34:05;97735.09;;;12.04;52.39
40155;BME280;25875;48.202;16.334;2023-04-01T06:36:56;97733.53;;;12.22;52.29
40155;BME280;25875;48.202;16.334;2023-04-01T06:39:46;97737.88;;;12.33;51.60
40155;BME280;25875;48.202;16.334;2023-04-01T06:42:30;97730.94;;;12.41;51.57
40155;BME280;25875;48.202;16.334;2023-04-01T06:45:07;97747.19;;;12.58;51.12
40155;BME280;25875;48.202;16.334;2023-04-01T06:47:46;97727.25;;;12.82;50.45
40155;BME280;25875;48.202;16.334;2023-04-01T06:50:23;97724.72;;;13.00;49.82
40155;BME280;25875;48.202;16.334;2023-04-01T06:52:56;97743.19;;;12.92;50.03
40155;BME280;25875;48.202;16.334;2023-04-01T06:55:32;97725.28;;;12.94;50.11
40155;BME280;25875;48.202;16.334;2023-04-01T06:58:05;97647.88;;;12.49;50.70
40155;BME280;25875;48.202;16.334;2023-04-01T07:00:35;97748.81;;;13.08;50.38
40155;BME280;25875;48.202;16.334;2023-04-01T07:03:08;97630.69;;;12.43;50.25
40155;BME280;25875;48.202;16.334;2023-04-01T07:05:37;97763.66;;;13.21;50.54
40155;BME280;25875;48.202;16.334;2023-04-01T07:08:06;97736.91;;;13.41;50.15
40155;BME280;25875;48.202;16.334;2023-04-01T07:10:43;97695.63;;;13.28;49.48
40155;BME280;25875;48.202;16.334;2023-04-01T07:13:15;97718.44;;;13.50;49.07
40155;BME280;25875;48.202;16.334;2023-04-01T07:15:48;97733.53;;;13.78;49.28
40155;BME280;25875;48.202;16.334;2023-04-01T07:18:18;97736.56;;;13.93;48.66
40155;BME280;25875;48.202;16.334;2023-04-01T07:20:48;97745.63;;;14.09;48.53
40155;BME280;25875;48.202;16.334;2023-04-01T07:23:20;97759.84;;;14.28;48.22
40155;BME280;25875;48.202;16.334;2023-04-01T07:25:52;97768.41;;;14.31;47.43
40155;BME280;25875;48.202;16.334;2023-04-01T07:28:20;97749.84;;;14.39;48.07
40155;BME280;25875;48.202;16.334;2023-04-01T07:30:55;97768.47;;;14.49;46.43
40155;BME280;25875;48.202;16.334;2023-04-01T07:33:29;97754.00;;;14.61;47.20
40155;BME280;25875;48.202;16.334;2023-04-01T07:36:03;97761.56;;;14.66;46.42
40155;BME280;25875;48.202;16.334;2023-04-01T07:38:37;97707.66;;;14.35;46.86
40155;BME280;25875;48.202;16.334;2023-04-01T07:41:14;97753.91;;;14.81;46.28
40155;BME280;25875;48.202;16.334;2023-04-01T07:43:56;97767.66;;;15.03;45.41
40155;BME280;25875;48.202;16.334;2023-04-01T07:46:46;97747.91;;;15.14;44.62
40155;BME280;25875;48.202;16.334;2023-04-01T07:49:18;97764.00;;;15.22;46.80
40155;BME280;25875;48.202;16.334;2023-04-01T07:51:54;97748.69;;;15.24;45.74
40155;BME280;25875;48.202;16.334;2023-04-01T07:54:29;97756.97;;;15.39;45.10
40155;BME280;25875;48.202;16.334;2023-04-01T07:57:02;97754.78;;;15.34;45.06
40155;BME280;25875;48.202;16.334;2023-04-01T07:59:39;97729.09;;;15.16;44.71
40155;BME280;25875;48.202;16.334;2023-04-01T08:02:17;97760.13;;;15.34;44.67
40155;BME280;25875;48.202;16.334;2023-04-01T08:04:55;97693.78;;;14.86;44.16
40155;BME280;25875;48.202;16.334;2023-04-01T08:07:30;97588.56;;;14.35;45.86
40155;BME280;25875;48.202;16.334;2023-04-01T08:10:06;97759.63;;;15.57;45.22
40155;BME280;25875;48.202;16.334;2023-04-01T08:12:44;97745.97;;;15.78;44.24
40155;BME280;25875;48.202;16.334;2023-04-01T08:15:18;97742.56;;;15.67;44.21
40155;BME280;25875;48.202;16.334;2023-04-01T08:17:55;97748.59;;;15.69;44.02
40155;BME280;25875;48.202;16.334;2023-04-01T08:20:29;97761.59;;;15.90;43.93
40155;BME280;25875;48.202;16.334;2023-04-01T08:23:02;97771.47;;;15.72;45.22
40155;BME280;25875;48.202;16.334;2023-04-01T08:25:33;97774.38;;;15.43;42.42
40155;BME280;25875;48.202;16.334;2023-04-01T08:28:04;97767.28;;;15.16;44.58
40155;BME280;25875;48.202;16.334;2023-04-01T08:30:41;97774.19;;;14.91;44.76
40155;BME280;25875;48.202;16.334;2023-04-01T08:33:13;97772.56;;;14.81;45.58
40155;BME280;25875;48.202;16.334;2023-04-01T08:35:46;97745.31;;;14.50;46.13
40155;BME280;25875;48.202;16.334;2023-04-01T08:38:19;97728.47;;;14.22;47.13
40155;BME280;25875;48.202;16.334;2023-04-01T08:41:12;97780.41;;;14.45;45.13
40155;BME280;25875;48.202;16.334;2023-04-01T08:43:50;97789.47;;;14.25;44.52
40155;BME280;25875;48.202;16.334;2023-04-01T08:46:46;97788.78;;;14.13;45.31
40155;BME280;25875;48.202;16.334;2023-04-01T08:52:33;97764.25;;;14.19;45.36
40155;BME280;25875;48.202;16.334;2023-04-01T08:55:22;97774.69;;;14.40;44.52
40155;BME280;25875;48.202;16.334;2023-04-01T08:58:00;97749.22;;;14.18;45.25
40155;BME280;25875;48.202;16.334;2023-04-01T09:00:46;97777.53;;;14.29;45.11
40155;BME280;25875;48.202;16.334;2023-04-01T09:12:21;97776.19;;;14.05;44.16
40155;BME280;25875;48.202;16.334;2023-04-01T09:15:13;97800.56;;;14.10;44.46
40155;BME280;25875;48.202;16.334;2023-04-01T09:18:06;97794.44;;;14.00;44.52
40155;BME280;25875;48.202;16.334;2023-04-01T09:20:53;97794.16;;;14.03;45.17
40155;BME280;25875;48.202;16.334;2023-04-01T09:23:40;97798.22;;;13.98;44.07
40155;BME280;25875;48.202;16.334;2023-04-01T09:26:22;97751.19;;;13.69;44.87
40155;BME280;25875;48.202;16.334;2023-04-01T09:29:00;97777.13;;;13.67;45.54
40155;BME280;25875;48.202;16.334;2023-04-01T09:31:43;97729.78;;;13.32;44.73
40155;BME280;25875;48.202;16.334;2023-04-01T09:34:35;97786.78;;;13.49;44.88
40155;BME280;25875;48.202;16.334;2023-04-01T09:37:19;97812.84;;;13.55;45.16
40155;BME280;25875;48.202;16.334;2023-04-01T09:40:15;97809.22;;;13.46;45.04
40155;BME280;25875;48.202;16.334;2023-04-01T09:42:45;97821.50;;;13.38;46.63
40155;BME280;25875;48.202;16.334;2023-04-01T09:45:28;97810.34;;;13.54;46.42
40155;BME280;25875;48.202;16.334;2023-04-01T09:48:09;97817.75;;;13.79;45.92
40155;BME280;25875;48.202;16.334;2023-04-01T09:50:51;97807.34;;;13.95;45.17
40155;BME280;25875;48.202;16.334;2023-04-01T09:53:35;97816.47;;;13.93;44.69
40155;BME280;25875;48.202;16.334;2023-04-01T09:56:33;97820.66;;;13.95;44.42
40155;BME280;25875;48.202;16.334;2023-04-01T09:59:29;97765.34;;;13.60;44.51
40155;BME280;25875;48.202;16.334;2023-04-01T10:17:50;97807.13;;;15.00;40.52
40155;BME280;25875;48.202;16.334;2023-04-01T10:20:55;97789.81;;;14.86;40.60
40155;BME280;25875;48.202;16.334;2023-04-01T10:26:52;97795.50;;;14.73;41.30
40155;BME280;25875;48.202;16.334;2023-04-01T10:41:54;97804.78;;;14.13;43.44
40155;BME280;25875;48.202;16.334;2023-04-01T10:44:58;97672.38;;;13.20;43.38
40155;BME280;25875;48.202;16.334;2023-04-01T10:47:59;97811.97;;;13.93;43.70
40155;BME280;25875;48.202;16.334;2023-04-01T10:51:02;97802.72;;;13.88;43.66
40155;BME280;25875;48.202;16.334;2023-04-01T10:53:38;97801.63;;;13.80;44.92
40155;BME280;25875;48.202;16.334;2023-04-01T11:09:16;97780.63;;;13.68;43.86
40155;BME280;25875;48.202;16.334;2023-04-01T11:12:31;97794.06;;;13.76;43.69
40155;BME280;25875;48.202;16.334;2023-04-01T11:27:13;97732.84;;;13.37;43.91
40155;BME280;25875;48.202;16.334;2023-04-01T11:30:06;97794.63;;;13.70;43.32
40155;BME280;25875;48.202;16.334;2023-04-01T11:32:43;97785.66;;;13.71;43.80
40155;BME280;25875;48.202;16.334;2023-04-01T11:35:42;97790.13;;;13.80;43.29
40155;BME280;25875;48.202;16.334;2023-04-01T11:38:25;97771.22;;;13.83;43.23
40155;BME280;25875;48.202;16.334;2023-04-01T11:41:02;97783.94;;;13.89;43.92
40155;BME280;25875;48.202;16.334;2023-04-01T11:43:41;97667.59;;;13.33;43.68
40155;BME280;25875;48.202;16.334;2023-04-01T11:46:12;97752.00;;;13.79;44.11
40155;BME280;25875;48.202;16.334;2023-04-01T11:49:00;97758.03;;;13.82;42.51
40155;BME280;25875;48.202;16.334;2023-04-01T11:51:40;97778.03;;;13.95;42.65
40155;BME280;25875;48.202;16.334;2023-04-01T11:54:18;97795.56;;;13.98;42.92
40155;BME280;25875;48.202;16.334;2023-04-01T11:57:06;97797.94;;;14.01;42.09
40155;BME280;25875;48.202;16.334;2023-04-01T12:00:03;97791.47;;;14.03;41.81
40155;BME280;25875;48.202;16.334;2023-04-01T12:02:44;97799.44;;;14.13;42.55
40155;BME280;25875;48.202;16.334;2023-04-01T12:05:23;97653.59;;;13.41;42.42
40155;BME280;25875;48.202;16.334;2023-04-01T12:08:19;97799.09;;;14.35;41.73
40155;BME280;25875;48.202;16.334;2023-04-01T12:10:56;97771.47;;;14.36;42.66
40155;BME280;25875;48.202;16.334;2023-04-01T12:13:39;97773.53;;;14.42;42.33
40155;BME280;25875;48.202;16.334;2023-04-01T12:16:29;97768.34;;;14.41;41.42
40155;BME280;25875;48.202;16.334;2023-04-01T12:19:10;97746.81;;;14.25;42.14
40155;BME280;25875;48.202;16.334;2023-04-01T12:21:48;97782.66;;;14.40;42.08
40155;BME280;25875;48.202;16.334;2023-04-01T12:24:44;97767.25;;;14.34;41.02
40155;BME280;25875;48.202;16.334;2023-04-01T12:27:23;97777.94;;;14.34;41.46
40155;BME280;25875;48.202;16.334;2023-04-01T12:30:30;97781.56;;;14.33;41.35
40155;BME280;25875;48.202;16.334;2023-04-01T12:33:37;97784.13;;;14.25;41.39
40155;BME280;25875;48.202;16.334;2023-04-01T12:36:19;97672.06;;;13.52;42.06
40155;BME280;25875;48.202;16.334;2023-04-01T12:39:06;97788.03;;;14.30;41.81
40155;BME280;25875;48.202;16.334;2023-04-01T12:41:45;97733.88;;;14.02;42.01
40155;BME280;25875;48.202;16.334;2023-04-01T12:44:25;97748.00;;;14.12;41.36
40155;BME280;25875;48.202;16.334;2023-04-01T12:50:09;97796.50;;;14.16;43.36
40155;BME280;25875;48.202;16.334;2023-04-01T12:52:55;97791.31;;;14.15;43.28
40155;BME280;25875;48.202;16.334;2023-04-01T12:55:41;97764.72;;;14.05;44.19
40155;BME280;25875;48.202;16.334;2023-04-01T12:58:57;97774.41;;;14.33;43.64
40155;BME280;25875;48.202;16.334;2023-04-01T13:04:50;97748.66;;;14.52;42.44
40155;BME280;25875;48.202;16.334;2023-04-01T13:10:56;97716.94;;;14.68;41.14
40155;BME280;25875;48.202;16.334;2023-04-01T13:13:57;97762.84;;;15.07;40.42
40155;BME280;25875;48.202;16.334;2023-04-01T13:16:30;97759.56;;;15.13;41.34
40155;BME280;25875;48.202;16.334;2023-04-01T13:19:00;97761.78;;;15.18;41.02
40155;BME280;25875;48.202;16.334;2023-04-01T13:21:39;97763.31;;;15.20;39.89
40155;BME280;25875;48.202;16.334;2023-04-01T13:24:20;97760.78;;;15.19;39.85
40155;BME280;25875;48.202;16.334;2023-04-01T13:26:57;97763.53;;;15.09;39.48
40155;BME280;25875;48.202;16.334;2023-04-01T13:29:31;97749.66;;;14.88;40.24
40155;BME280;25875;48.202;16.334;2023-04-01T13:32:20;97769.25;;;14.96;39.47
40155;BME280;25875;48.202;16.334;2023-04-01T13:34:59;97766.03;;;14.93;39.68
40155;BME280;25875;48.202;16.334;2023-04-01T13:37:41;97751.31;;;14.89;40.00
40155;BME280;25875;48.202;16.334;2023-04-01T13:40:33;97758.34;;;14.90;38.96
40155;BME280;25875;48.202;16.334;2023-04-01T13:43:19;97759.41;;;14.97;38.83
40155;BME280;25875;48.202;16.334;2023-04-01T13:46:16;97683.56;;;14.64;38.77
40155;BME280;25875;48.202;16.334;2023-04-01T13:49:28;97764.38;;;15.27;38.52
40155;BME280;25875;48.202;16.334;2023-04-01T13:55:25;97759.09;;;15.53;38.36
40155;BME280;25875;48.202;16.334;2023-04-01T13:58:23;97739.81;;;15.42;37.92
40155;BME280;25875;48.202;16.334;2023-04-01T14:00:57;97752.31;;;15.59;39.00
40155;BME280;25875;48.202;16.334;2023-04-01T14:03:37;97694.09;;;15.19;38.89
40155;BME280;25875;48.202;16.334;2023-04-01T14:06:17;97600.75;;;14.56;37.89
40155;BME280;25875;48.202;16.334;2023-04-01T14:09:08;97743.31;;;15.42;38.63
40155;BME280;25875;48.202;16.334;2023-04-01T14:11:46;97750.66;;;15.40;38.54
40155;BME280;25875;48.202;16.334;2023-04-01T14:17:26;97737.69;;;15.27;38.37
40155;BME280;25875;48.202;16.334;2023-04-01T14:20:19;97738.69;;;15.26;37.95
40155;BME280;25875;48.202;16.334;2023-04-01T14:23:00;97743.88;;;15.28;38.88
40155;BME280;25875;48.202;16.334;2023-04-01T14:25:43;97734.41;;;15.33;37.88
40155;BME280;25875;48.202;16.334;2023-04-01T14:28:25;97735.41;;;15.32;37.62
40155;BME280;25875;48.202;16.334;2023-04-01T14:31:15;97742.28;;;15.35;37.47
40155;BME280;25875;48.202;16.334;2023-04-01T14:33:57;97729.44;;;15.38;36.93
40155;BME280;25875;48.202;16.334;2023-04-01T14:36:37;97742.34;;;15.43;37.68
40155;BME280;25875;48.202;16.334;2023-04-01T14:39:18;97718.69;;;15.48;37.75
40155;BME280;25875;48.202;16.334;2023-04-01T14:41:53;97730.13;;;15.58;37.92
40155;BME280;25875;48.202;16.334;2023-04-01T14:44:41;97727.38;;;15.68;35.96
40155;BME280;25875;48.202;16.334;2023-04-01T14:47:28;97558.78;;;14.67;35.35
40155;BME280;25875;48.202;16.334;2023-04-01T14:50:09;97712.94;;;15.79;36.38
40155;BME280;25875;48.202;16.334;2023-04-01T14:52:42;97729.84;;;15.87;37.47
40155;BME280;25875;48.202;16.334;2023-04-01T14:55:27;97720.41;;;16.01;36.24
40155;BME280;25875;48.202;16.334;2023-04-01T14:57:59;97709.94;;;16.08;36.66
40155;BME280;25875;48.202;16.334;2023-04-01T15:00:41;97715.63;;;16.13;34.93
40155;BME280;25875;48.202;16.334;2023-04-01T15:03:14;97672.06;;;15.60;35.08
40155;BME280;25875;48.202;16.334;2023-04-01T15:05:52;97721.63;;;16.07;35.60